createdAt,value
2017-07-17T00:00:28.034Z,0
2017-07-17T00:01:08.493Z,0
2017-07-17T00:01:48.950Z,0
2017-07-17T00:02:29.404Z,0
2017-07-17T00:03:09.864Z,0
2017-07-17T00:03:50.330Z,0
2017-07-17T00:04:30.788Z,0
2017-07-17T00:05:11.250Z,0
2017-07-17T00:05:51.718Z,0
2017-07-17T00:06:32.183Z,0
2017-07-17T00:07:12.642Z,0
2017-07-17T00:07:53.101Z,0
2017-07-17T00:08:33.559Z,0
2017-07-17T00:09:14.019Z,0
2017-07-17T00:09:54.471Z,0
2017-07-17T00:10:34.925Z,0
2017-07-17T00:11:15.382Z,0
2017-07-17T00:11:55.844Z,0
2017-07-17T00:12:36.292Z,0
2017-07-17T00:13:16.748Z,0
2017-07-17T00:13:57.199Z,0
2017-07-17T00:14:37.650Z,0
2017-07-17T00:15:18.116Z,0
2017-07-17T00:15:58.569Z,0
2017-07-17T00:16:39.088Z,0
2017-07-17T00:17:19.543Z,0
2017-07-17T00:17:59.999Z,0
2017-07-17T00:18:40.456Z,0
2017-07-17T00:19:20.915Z,0
2017-07-17T00:20:01.372Z,0
2017-07-17T00:20:41.830Z,0
2017-07-17T00:21:22.283Z,0
2017-07-17T00:22:02.742Z,0
2017-07-17T00:22:43.228Z,0
2017-07-17T00:23:23.682Z,0
2017-07-17T00:24:04.141Z,0
2017-07-17T00:24:44.602Z,0
2017-07-17T00:25:25.058Z,0
2017-07-17T00:26:05.517Z,0
2017-07-17T00:26:45.974Z,0
2017-07-17T00:27:26.434Z,0
2017-07-17T00:28:06.893Z,0
2017-07-17T00:28:47.346Z,0
2017-07-17T00:29:27.810Z,0
2017-07-17T00:30:08.285Z,0
2017-07-17T00:30:48.745Z,0
2017-07-17T00:31:29.206Z,0
2017-07-17T00:32:09.664Z,0
2017-07-17T00:32:50.120Z,0
2017-07-17T00:33:30.573Z,0
2017-07-17T00:34:11.034Z,0
2017-07-17T00:34:51.487Z,0
2017-07-17T00:35:31.947Z,0
2017-07-17T00:36:12.398Z,0
2017-07-17T00:36:52.859Z,0
2017-07-17T00:37:33.309Z,0
2017-07-17T00:38:13.770Z,0
2017-07-17T00:38:54.241Z,0
2017-07-17T00:39:34.702Z,0
2017-07-17T00:40:15.163Z,0
2017-07-17T00:40:55.615Z,0
2017-07-17T00:41:36.071Z,0
2017-07-17T00:42:16.529Z,0
2017-07-17T00:42:56.986Z,0
2017-07-17T00:43:37.442Z,0
2017-07-17T00:44:17.905Z,0
2017-07-17T00:44:58.352Z,0
2017-07-17T00:45:38.803Z,0
2017-07-17T00:46:19.264Z,0
2017-07-17T00:46:59.723Z,0
2017-07-17T00:47:40.174Z,0
2017-07-17T00:48:20.629Z,0
2017-07-17T00:49:01.103Z,0
2017-07-17T00:49:41.556Z,0
2017-07-17T00:50:22.010Z,0
2017-07-17T00:51:02.476Z,0
2017-07-17T00:51:42.925Z,0
2017-07-17T00:52:23.382Z,0
2017-07-17T00:53:03.841Z,0
2017-07-17T00:53:44.297Z,0
2017-07-17T00:54:24.789Z,0
2017-07-17T00:55:05.245Z,0
2017-07-17T00:55:45.696Z,0
2017-07-17T00:56:26.155Z,0
2017-07-17T00:57:06.611Z,0
2017-07-17T00:57:47.069Z,0
2017-07-17T00:58:27.526Z,0
2017-07-17T00:59:07.985Z,0
2017-07-17T00:59:48.511Z,0
2017-07-17T01:00:28.963Z,0
2017-07-17T01:01:09.412Z,0
2017-07-17T01:01:49.869Z,0
2017-07-17T01:02:30.322Z,0
2017-07-17T01:03:10.788Z,0
2017-07-17T01:03:51.243Z,0
2017-07-17T01:04:31.700Z,0
2017-07-17T01:05:12.157Z,0
2017-07-17T01:05:52.614Z,0
2017-07-17T01:06:33.065Z,0
2017-07-17T01:07:13.518Z,0
2017-07-17T01:07:53.958Z,0
2017-07-17T01:08:34.411Z,0
2017-07-17T01:09:14.865Z,0
2017-07-17T01:09:55.317Z,0
2017-07-17T01:10:35.773Z,0
2017-07-17T01:11:16.235Z,0
2017-07-17T01:11:56.683Z,0
2017-07-17T01:12:37.135Z,0
2017-07-17T01:13:17.591Z,0
2017-07-17T01:13:58.053Z,0
2017-07-17T01:14:38.507Z,0
2017-07-17T01:15:18.961Z,0
2017-07-17T01:15:59.421Z,0
2017-07-17T01:16:39.879Z,0
2017-07-17T01:17:20.371Z,0
2017-07-17T01:18:00.789Z,0
2017-07-17T01:18:41.258Z,0
2017-07-17T01:19:21.705Z,0
2017-07-17T01:20:02.162Z,0
2017-07-17T01:20:42.613Z,0
2017-07-17T01:21:23.068Z,0
2017-07-17T01:22:03.581Z,0
2017-07-17T01:22:44.055Z,0
2017-07-17T01:23:24.508Z,0
2017-07-17T01:24:04.957Z,0
2017-07-17T01:24:45.409Z,0
2017-07-17T01:25:25.861Z,0
2017-07-17T01:26:06.316Z,0
2017-07-17T01:26:46.776Z,0
2017-07-17T01:27:27.234Z,0
2017-07-17T01:28:07.681Z,0
2017-07-17T01:28:48.139Z,0
2017-07-17T01:29:28.598Z,0
2017-07-17T01:30:09.050Z,0
2017-07-17T01:30:49.502Z,0
2017-07-17T01:31:29.954Z,0
2017-07-17T01:32:10.407Z,0
2017-07-17T01:32:50.864Z,0
2017-07-17T01:33:31.326Z,0
2017-07-17T01:34:11.779Z,0
2017-07-17T01:34:52.231Z,0
2017-07-17T01:35:32.683Z,0
2017-07-17T01:36:13.156Z,0
2017-07-17T01:36:53.606Z,0
2017-07-17T01:37:34.062Z,0
2017-07-17T01:38:14.522Z,0
2017-07-17T01:38:54.986Z,0
2017-07-17T01:39:35.440Z,0
2017-07-17T01:40:15.910Z,0
2017-07-17T01:40:56.365Z,0
2017-07-17T01:41:36.829Z,0
2017-07-17T01:42:17.275Z,0
2017-07-17T01:42:57.731Z,0
2017-07-17T01:43:38.191Z,0
2017-07-17T01:45:51.036Z,0
2017-07-17T01:46:31.494Z,0
2017-07-17T01:47:11.932Z,0
2017-07-17T01:47:52.386Z,0
2017-07-17T01:48:32.846Z,0
2017-07-17T01:49:13.302Z,0
2017-07-17T01:49:53.754Z,0
2017-07-17T01:50:34.217Z,0
2017-07-17T01:51:14.674Z,0
2017-07-17T01:51:55.127Z,0
2017-07-17T01:52:35.584Z,0
2017-07-17T01:53:16.040Z,0
2017-07-17T01:53:56.502Z,0
2017-07-17T01:54:36.958Z,0
2017-07-17T01:55:17.416Z,0
2017-07-17T01:55:57.865Z,0
2017-07-17T01:56:38.334Z,0
2017-07-17T01:57:18.803Z,0
2017-07-17T01:57:59.261Z,0
2017-07-17T01:58:39.711Z,0
2017-07-17T01:59:20.176Z,0
2017-07-17T02:00:00.635Z,0
2017-07-17T02:00:41.091Z,0
2017-07-17T02:01:21.558Z,0
2017-07-17T02:02:02.021Z,0
2017-07-17T02:02:42.477Z,0
2017-07-17T02:03:22.931Z,0
2017-07-17T02:04:03.390Z,0
2017-07-17T02:04:43.843Z,0
2017-07-17T02:05:24.291Z,0
2017-07-17T02:06:04.744Z,0
2017-07-17T02:06:45.201Z,0
2017-07-17T02:07:25.659Z,0
2017-07-17T02:08:06.125Z,0
2017-07-17T02:08:46.576Z,0
2017-07-17T02:09:27.036Z,0
2017-07-17T02:10:07.493Z,0
2017-07-17T02:10:47.953Z,0
2017-07-17T02:11:28.395Z,0
2017-07-17T02:12:08.849Z,0
2017-07-17T02:12:49.304Z,0
2017-07-17T02:13:29.768Z,0
2017-07-17T02:14:10.225Z,0
2017-07-17T02:14:50.675Z,0
2017-07-17T02:15:31.128Z,0
2017-07-17T02:16:11.593Z,0
2017-07-17T02:16:52.051Z,0
2017-07-17T02:17:32.504Z,0
2017-07-17T02:18:12.958Z,0
2017-07-17T02:18:53.416Z,0
2017-07-17T02:19:33.875Z,0
2017-07-17T02:20:14.324Z,0
2017-07-17T02:20:54.780Z,0
2017-07-17T02:21:35.240Z,0
2017-07-17T02:22:16.162Z,0
2017-07-17T02:22:56.608Z,0
2017-07-17T02:23:37.066Z,0
2017-07-17T02:24:17.525Z,0
2017-07-17T02:24:57.979Z,0
2017-07-17T02:25:38.436Z,0
2017-07-17T02:26:18.912Z,0
2017-07-17T02:26:59.365Z,0
2017-07-17T02:27:39.823Z,0
2017-07-17T02:28:20.282Z,0
2017-07-17T02:29:00.735Z,0
2017-07-17T02:29:41.191Z,0
2017-07-17T02:30:21.658Z,0
2017-07-17T02:31:02.110Z,0
2017-07-17T02:31:42.565Z,0
2017-07-17T02:32:23.023Z,0
2017-07-17T02:33:03.480Z,0
2017-07-17T02:33:43.936Z,0
2017-07-17T02:34:24.421Z,0
2017-07-17T02:35:04.853Z,0
2017-07-17T02:35:45.312Z,0
2017-07-17T02:36:25.770Z,0
2017-07-17T02:37:06.229Z,0
2017-07-17T02:37:46.688Z,0
2017-07-17T02:38:27.146Z,0
2017-07-17T02:39:07.590Z,0
2017-07-17T02:39:48.047Z,0
2017-07-17T02:40:28.501Z,0
2017-07-17T02:41:08.960Z,0
2017-07-17T02:41:49.418Z,0
2017-07-17T02:42:29.871Z,0
2017-07-17T02:43:10.406Z,0
2017-07-17T02:43:50.862Z,0
2017-07-17T02:44:31.319Z,0
2017-07-17T02:45:11.812Z,0
2017-07-17T02:45:52.269Z,0
2017-07-17T02:46:32.726Z,0
2017-07-17T02:47:13.184Z,0
2017-07-17T02:47:53.639Z,0
2017-07-17T02:48:34.095Z,0
2017-07-17T02:50:52.162Z,0
2017-07-17T02:51:32.626Z,0
2017-07-17T02:52:13.078Z,0
2017-07-17T02:52:53.540Z,0
2017-07-17T02:53:33.994Z,0
2017-07-17T02:54:14.450Z,0
2017-07-17T02:54:54.904Z,0
2017-07-17T02:55:35.351Z,0
2017-07-17T02:56:15.799Z,0
2017-07-17T02:56:56.262Z,0
2017-07-17T02:57:36.720Z,0
2017-07-17T02:58:17.173Z,0
2017-07-17T02:58:57.627Z,0
2017-07-17T02:59:38.085Z,0
2017-07-17T03:00:18.540Z,0
2017-07-17T03:00:59.006Z,0
2017-07-17T03:01:39.457Z,0
2017-07-17T03:02:19.911Z,0
2017-07-17T03:03:00.369Z,0
2017-07-17T03:03:40.833Z,0
2017-07-17T03:04:21.300Z,0
2017-07-17T03:05:01.751Z,0
2017-07-17T03:05:42.205Z,0
2017-07-17T03:06:22.660Z,0
2017-07-17T03:07:03.128Z,0
2017-07-17T03:07:43.605Z,0
2017-07-17T03:08:24.064Z,0
2017-07-17T03:09:04.527Z,0
2017-07-17T03:09:44.982Z,0
2017-07-17T03:10:25.438Z,0
2017-07-17T03:11:05.894Z,0
2017-07-17T03:11:46.350Z,0
2017-07-17T03:12:26.804Z,0
2017-07-17T03:13:07.264Z,0
2017-07-17T03:13:47.720Z,0
2017-07-17T03:14:28.179Z,0
2017-07-17T03:15:08.635Z,0
2017-07-17T03:15:49.100Z,0
2017-07-17T03:16:29.553Z,0
2017-07-17T03:17:10.008Z,0
2017-07-17T03:17:50.458Z,0
2017-07-17T03:18:30.909Z,0
2017-07-17T03:19:11.361Z,0
2017-07-17T03:19:51.813Z,0
2017-07-17T03:20:32.260Z,0
2017-07-17T03:21:12.714Z,0
2017-07-17T03:21:53.172Z,0
2017-07-17T03:22:34.323Z,0
2017-07-17T03:23:14.777Z,0
2017-07-17T03:23:55.234Z,0
2017-07-17T03:24:35.705Z,0
2017-07-17T03:25:16.158Z,0
2017-07-17T03:25:56.615Z,0
2017-07-17T03:26:37.059Z,0
2017-07-17T03:27:17.520Z,0
2017-07-17T03:27:57.970Z,0
2017-07-17T03:28:38.441Z,0
2017-07-17T03:29:18.863Z,0
2017-07-17T03:29:59.317Z,0
2017-07-17T03:30:39.774Z,0
2017-07-17T03:31:20.234Z,0
2017-07-17T03:32:00.703Z,0
2017-07-17T03:32:41.137Z,0
2017-07-17T03:33:21.597Z,0
2017-07-17T03:34:02.046Z,0
2017-07-17T03:34:42.502Z,0
2017-07-17T03:35:22.962Z,0
2017-07-17T03:36:03.415Z,0
2017-07-17T03:36:43.871Z,0
2017-07-17T03:37:24.325Z,0
2017-07-17T03:38:04.782Z,0
2017-07-17T03:38:45.244Z,0
2017-07-17T03:39:25.696Z,0
2017-07-17T03:40:06.149Z,0
2017-07-17T03:40:46.641Z,0
2017-07-17T03:41:27.067Z,0
2017-07-17T03:42:07.523Z,0
2017-07-17T03:42:47.975Z,0
2017-07-17T03:43:28.431Z,0
2017-07-17T03:44:08.880Z,0
2017-07-17T03:44:49.328Z,0
2017-07-17T03:45:29.783Z,0
2017-07-17T03:46:10.234Z,0
2017-07-17T03:46:50.694Z,0
2017-07-17T03:47:31.142Z,0
2017-07-17T03:48:11.599Z,0
2017-07-17T03:48:52.052Z,0
2017-07-17T03:49:32.506Z,0
2017-07-17T03:50:12.964Z,0
2017-07-17T03:50:53.416Z,0
2017-07-17T03:51:33.872Z,0
2017-07-17T03:52:14.310Z,0
2017-07-17T03:52:54.772Z,0
2017-07-17T03:53:35.235Z,0
2017-07-17T03:54:15.687Z,0
2017-07-17T03:54:56.145Z,0
2017-07-17T03:55:36.594Z,0
2017-07-17T03:56:17.052Z,0
2017-07-17T03:56:57.495Z,0
2017-07-17T03:57:37.947Z,0
2017-07-17T03:58:18.405Z,0
2017-07-17T03:58:58.868Z,0
2017-07-17T03:59:39.314Z,0
2017-07-17T04:00:19.763Z,0
2017-07-17T04:01:00.216Z,0
2017-07-17T04:01:40.672Z,0
2017-07-17T04:02:21.128Z,0
2017-07-17T04:03:01.585Z,0
2017-07-17T04:03:42.045Z,0
2017-07-17T04:04:22.502Z,0
2017-07-17T04:05:02.961Z,0
2017-07-17T04:05:43.407Z,0
2017-07-17T04:06:23.865Z,0
2017-07-17T04:07:04.316Z,0
2017-07-17T04:07:44.765Z,0
2017-07-17T04:08:25.221Z,0
2017-07-17T04:09:05.678Z,0
2017-07-17T04:09:46.129Z,0
2017-07-17T04:10:26.583Z,0
2017-07-17T04:11:07.042Z,0
2017-07-17T04:11:47.494Z,0
2017-07-17T04:12:27.950Z,0
2017-07-17T04:13:08.403Z,0
2017-07-17T04:13:48.857Z,0
2017-07-17T04:14:29.322Z,0
2017-07-17T04:15:09.777Z,0
2017-07-17T04:15:50.235Z,0
2017-07-17T04:16:30.696Z,0
2017-07-17T04:17:11.143Z,0
2017-07-17T04:17:51.595Z,0
2017-07-17T04:18:32.043Z,0
2017-07-17T04:19:12.506Z,0
2017-07-17T04:19:52.956Z,0
2017-07-17T04:20:33.411Z,5
2017-07-17T04:21:13.865Z,5
2017-07-17T04:21:54.335Z,5
2017-07-17T04:22:34.779Z,5
2017-07-17T04:23:15.237Z,5
2017-07-17T04:23:55.704Z,0
2017-07-17T04:24:36.165Z,0
2017-07-17T04:25:17.360Z,0
2017-07-17T04:25:57.812Z,0
2017-07-17T04:26:38.264Z,0
2017-07-17T04:27:18.698Z,0
2017-07-17T04:27:59.161Z,0
2017-07-17T04:28:39.724Z,0
2017-07-17T04:29:20.182Z,0
2017-07-17T04:30:00.920Z,0
2017-07-17T04:30:42.294Z,0
2017-07-17T04:31:22.378Z,0
2017-07-17T04:32:02.822Z,0
2017-07-17T04:32:43.280Z,0
2017-07-17T04:33:23.736Z,0
2017-07-17T04:34:04.187Z,0
2017-07-17T04:34:44.644Z,0
2017-07-17T04:35:25.092Z,0
2017-07-17T04:36:05.547Z,0
2017-07-17T04:36:46.066Z,0
2017-07-17T04:37:26.522Z,0
2017-07-17T04:38:07.174Z,0
2017-07-17T04:38:48.267Z,0
2017-07-17T04:39:28.831Z,0
2017-07-17T04:40:09.472Z,0
2017-07-17T04:40:50.803Z,0
2017-07-17T04:41:31.702Z,0
2017-07-17T04:43:44.704Z,0
2017-07-17T04:44:25.157Z,0
2017-07-17T04:45:05.604Z,0
2017-07-17T04:45:46.055Z,0
2017-07-17T04:46:26.509Z,0
2017-07-17T04:47:06.963Z,0
2017-07-17T04:47:47.420Z,0
2017-07-17T04:48:27.872Z,0
2017-07-17T04:49:08.329Z,0
2017-07-17T04:49:48.774Z,0
2017-07-17T04:50:29.225Z,0
2017-07-17T04:51:09.679Z,0
2017-07-17T04:51:50.134Z,0
2017-07-17T04:52:30.594Z,0
2017-07-17T04:53:11.054Z,0
2017-07-17T04:53:51.510Z,0
2017-07-17T04:54:31.997Z,0
2017-07-17T04:55:12.450Z,0
2017-07-17T04:55:52.902Z,0
2017-07-17T04:56:33.358Z,0
2017-07-17T04:57:13.999Z,0
2017-07-17T04:57:54.455Z,0
2017-07-17T04:58:34.900Z,0
2017-07-17T04:59:15.356Z,0
2017-07-17T04:59:55.805Z,0
2017-07-17T05:00:36.290Z,0
2017-07-17T05:01:16.739Z,0
2017-07-17T05:01:57.197Z,0
2017-07-17T05:02:37.654Z,0
2017-07-17T05:03:18.110Z,0
2017-07-17T05:03:58.569Z,0
2017-07-17T05:04:39.017Z,0
2017-07-17T05:05:19.614Z,0
2017-07-17T05:06:00.016Z,0
2017-07-17T05:06:40.487Z,0
2017-07-17T05:07:20.932Z,0
2017-07-17T05:08:01.389Z,0
2017-07-17T05:10:39.855Z,5
2017-07-17T05:11:20.333Z,5
2017-07-17T05:12:00.780Z,5
2017-07-17T05:12:41.231Z,5
2017-07-17T05:13:21.690Z,5
2017-07-17T05:14:02.164Z,5
2017-07-17T05:14:42.624Z,5
2017-07-17T05:15:23.352Z,5
2017-07-17T05:16:03.817Z,5
2017-07-17T05:16:44.338Z,5
2017-07-17T05:17:24.774Z,5
2017-07-17T05:18:05.226Z,5
2017-07-17T05:18:45.677Z,5
2017-07-17T05:19:26.131Z,5
2017-07-17T05:20:06.583Z,5
2017-07-17T05:20:47.399Z,5
2017-07-17T05:21:27.926Z,5
2017-07-17T05:22:08.394Z,5
2017-07-17T05:22:48.844Z,5
2017-07-17T05:23:29.293Z,10
2017-07-17T05:24:09.749Z,10
2017-07-17T05:24:50.664Z,10
2017-07-17T05:25:31.308Z,10
2017-07-17T05:26:11.783Z,10
2017-07-17T05:26:52.231Z,10
2017-07-17T05:27:32.690Z,10
2017-07-17T05:28:13.142Z,15
2017-07-17T05:28:53.832Z,15
2017-07-17T05:29:34.278Z,15
2017-07-17T05:32:08.656Z,15
2017-07-17T05:32:49.110Z,15
2017-07-17T05:33:29.559Z,15
2017-07-17T05:34:10.015Z,15
2017-07-17T05:34:50.570Z,15
2017-07-17T05:35:30.959Z,15
2017-07-17T05:36:11.418Z,15
2017-07-17T05:36:52.215Z,15
2017-07-17T05:37:32.612Z,15
2017-07-17T05:38:13.060Z,15
2017-07-17T05:38:53.515Z,15
2017-07-17T05:39:33.969Z,15
2017-07-17T05:40:14.616Z,15
2017-07-17T05:40:55.061Z,15
2017-07-17T05:41:35.552Z,15
2017-07-17T05:42:15.970Z,15
2017-07-17T05:42:56.420Z,15
2017-07-17T05:43:36.867Z,15
2017-07-17T05:44:17.314Z,20
2017-07-17T05:44:57.767Z,20
2017-07-17T05:45:38.242Z,15
2017-07-17T05:46:19.607Z,15
2017-07-17T05:47:00.068Z,15
2017-07-17T05:47:40.517Z,15
2017-07-17T05:48:20.975Z,15
2017-07-17T05:49:01.436Z,20
2017-07-17T05:49:41.890Z,20
2017-07-17T05:50:22.341Z,20
2017-07-17T05:51:02.797Z,20
2017-07-17T05:51:43.260Z,20
2017-07-17T05:52:23.711Z,20
2017-07-17T05:53:04.367Z,20
2017-07-17T05:53:44.817Z,20
2017-07-17T05:54:25.273Z,20
2017-07-17T05:55:05.731Z,20
2017-07-17T05:55:46.188Z,20
2017-07-17T05:56:26.645Z,20
2017-07-17T05:57:07.099Z,20
2017-07-17T05:57:47.553Z,20
2017-07-17T05:58:27.999Z,20
2017-07-17T05:59:08.460Z,25
2017-07-17T05:59:48.904Z,25
2017-07-17T06:00:29.361Z,25
2017-07-17T06:01:09.821Z,25
2017-07-17T06:01:50.271Z,25
2017-07-17T06:02:30.728Z,25
2017-07-17T06:03:11.196Z,25
2017-07-17T06:03:51.635Z,25
2017-07-17T06:04:32.091Z,25
2017-07-17T06:05:12.544Z,25
2017-07-17T06:05:52.995Z,25
2017-07-17T06:06:33.455Z,20
2017-07-17T06:07:13.979Z,20
2017-07-17T06:07:54.360Z,20
2017-07-17T06:08:34.821Z,20
2017-07-17T06:09:15.270Z,20
2017-07-17T06:09:55.712Z,20
2017-07-17T06:10:36.172Z,20
2017-07-17T06:11:16.630Z,20
2017-07-17T06:11:57.084Z,25
2017-07-17T06:12:37.534Z,20
2017-07-17T06:13:17.989Z,20
2017-07-17T06:13:58.440Z,25
2017-07-17T06:14:38.904Z,25
2017-07-17T06:15:19.360Z,25
2017-07-17T06:15:59.820Z,25
2017-07-17T06:16:40.273Z,25
2017-07-17T06:17:20.728Z,25
2017-07-17T06:18:01.188Z,25
2017-07-17T06:18:41.635Z,25
2017-07-17T06:19:22.089Z,25
2017-07-17T06:20:02.547Z,25
2017-07-17T06:20:43.002Z,20
2017-07-17T06:21:23.523Z,20
2017-07-17T06:22:03.934Z,20
2017-07-17T06:22:44.390Z,20
2017-07-17T06:23:24.849Z,20
2017-07-17T06:24:05.303Z,20
2017-07-17T06:24:45.762Z,20
2017-07-17T06:25:26.208Z,20
2017-07-17T06:26:06.684Z,20
2017-07-17T06:26:47.128Z,20
2017-07-17T06:27:27.579Z,20
2017-07-17T06:28:08.029Z,20
2017-07-17T06:28:48.490Z,25
2017-07-17T06:29:28.945Z,25
2017-07-17T06:30:09.402Z,25
2017-07-17T06:30:49.859Z,25
2017-07-17T06:31:30.315Z,25
2017-07-17T06:32:10.771Z,25
2017-07-17T06:32:51.230Z,30
2017-07-17T06:33:31.721Z,35
2017-07-17T06:34:12.137Z,30
2017-07-17T06:34:52.596Z,30
2017-07-17T06:35:33.055Z,30
2017-07-17T06:36:13.510Z,30
2017-07-17T06:36:53.969Z,30
2017-07-17T06:37:34.427Z,30
2017-07-17T06:38:14.884Z,30
2017-07-17T06:38:55.338Z,30
2017-07-17T06:39:35.791Z,30
2017-07-17T06:40:16.251Z,30
2017-07-17T06:40:56.702Z,30
2017-07-17T06:41:37.162Z,30
2017-07-17T06:42:17.614Z,30
2017-07-17T06:42:58.064Z,30
2017-07-17T06:43:38.569Z,30
2017-07-17T06:44:18.987Z,30
2017-07-17T06:44:59.449Z,30
2017-07-17T06:45:39.904Z,30
2017-07-17T06:46:20.360Z,30
2017-07-17T06:47:00.815Z,30
2017-07-17T06:47:41.279Z,25
2017-07-17T06:48:21.715Z,25
2017-07-17T06:49:02.176Z,25
2017-07-17T06:49:42.630Z,25
2017-07-17T06:50:23.080Z,25
2017-07-17T06:51:03.533Z,25
2017-07-17T06:51:43.991Z,25
2017-07-17T06:52:24.442Z,25
2017-07-17T06:53:04.891Z,25
2017-07-17T06:53:45.343Z,30
2017-07-17T06:54:25.790Z,30
2017-07-17T06:55:06.234Z,30
2017-07-17T06:55:46.684Z,30
2017-07-17T06:56:27.127Z,30
2017-07-17T06:57:07.583Z,30
2017-07-17T06:57:48.039Z,30
2017-07-17T06:58:28.497Z,30
2017-07-17T06:59:08.954Z,30
2017-07-17T06:59:49.428Z,30
2017-07-17T07:00:29.885Z,30
2017-07-17T07:01:10.336Z,30
2017-07-17T07:01:50.801Z,30
2017-07-17T07:02:31.251Z,25
2017-07-17T07:03:11.710Z,25
2017-07-17T07:03:52.162Z,25
2017-07-17T07:04:32.614Z,25
2017-07-17T07:05:13.068Z,25
2017-07-17T07:05:53.525Z,25
2017-07-17T07:06:33.981Z,25
2017-07-17T07:07:14.442Z,25
2017-07-17T07:07:54.910Z,25
2017-07-17T07:08:35.373Z,25
2017-07-17T07:09:15.826Z,25
2017-07-17T07:09:56.284Z,25
2017-07-17T07:10:36.740Z,20
2017-07-17T07:11:17.191Z,20
2017-07-17T07:11:57.637Z,20
2017-07-17T07:12:38.093Z,20
2017-07-17T07:13:18.541Z,20
2017-07-17T07:13:59.021Z,20
2017-07-17T07:14:39.472Z,20
2017-07-17T07:15:19.925Z,20
2017-07-17T07:16:00.380Z,25
2017-07-17T07:16:40.842Z,25
2017-07-17T07:17:21.346Z,25
2017-07-17T07:18:01.761Z,25
2017-07-17T07:18:42.219Z,25
2017-07-17T07:19:22.675Z,30
2017-07-17T07:20:03.126Z,30
2017-07-17T07:20:43.576Z,30
2017-07-17T07:21:24.024Z,30
2017-07-17T07:22:04.506Z,30
2017-07-17T07:22:44.957Z,30
2017-07-17T07:23:25.410Z,30
2017-07-17T07:24:05.858Z,35
2017-07-17T07:24:46.326Z,35
2017-07-17T07:25:26.780Z,35
2017-07-17T07:26:07.235Z,30
2017-07-17T07:26:47.699Z,30
2017-07-17T07:27:28.144Z,30
2017-07-17T07:28:08.598Z,30
2017-07-17T07:28:49.055Z,25
2017-07-17T07:29:29.699Z,25
2017-07-17T07:30:10.147Z,25
2017-07-17T07:30:50.601Z,25
2017-07-17T07:31:31.047Z,25
2017-07-17T07:32:11.502Z,25
2017-07-17T07:32:51.956Z,25
2017-07-17T07:33:32.405Z,30
2017-07-17T07:34:12.862Z,30
2017-07-17T07:34:53.320Z,30
2017-07-17T07:35:33.775Z,30
2017-07-17T07:36:14.228Z,30
2017-07-17T07:36:54.686Z,35
2017-07-17T07:37:35.145Z,35
2017-07-17T07:38:15.602Z,35
2017-07-17T07:38:56.055Z,35
2017-07-17T07:39:36.518Z,35
2017-07-17T07:40:16.972Z,35
2017-07-17T07:40:57.428Z,35
2017-07-17T07:41:37.883Z,30
2017-07-17T07:42:18.339Z,30
2017-07-17T07:42:58.823Z,30
2017-07-17T07:43:39.269Z,30
2017-07-17T07:44:19.731Z,30
2017-07-17T07:45:00.185Z,35
2017-07-17T07:45:40.674Z,35
2017-07-17T07:46:21.101Z,35
2017-07-17T07:47:01.668Z,35
2017-07-17T07:47:42.166Z,35
2017-07-17T07:48:22.747Z,35
2017-07-17T07:49:03.176Z,35
2017-07-17T07:49:43.682Z,30
2017-07-17T07:50:24.139Z,30
2017-07-17T07:51:04.591Z,30
2017-07-17T07:51:45.048Z,30
2017-07-17T07:52:25.504Z,30
2017-07-17T07:53:05.957Z,30
2017-07-17T07:53:46.425Z,25
2017-07-17T07:54:26.884Z,25
2017-07-17T07:55:07.356Z,25
2017-07-17T07:55:47.801Z,25
2017-07-17T07:56:28.259Z,25
2017-07-17T07:57:08.714Z,30
2017-07-17T07:57:49.464Z,30
2017-07-17T07:58:29.609Z,30
2017-07-17T07:59:10.065Z,30
2017-07-17T07:59:50.552Z,30
2017-07-17T08:00:31.403Z,30
2017-07-17T08:01:12.114Z,30
2017-07-17T08:01:52.482Z,30
2017-07-17T08:02:32.956Z,30
2017-07-17T08:03:13.412Z,30
2017-07-17T08:03:53.868Z,30
2017-07-17T08:04:34.318Z,30
2017-07-17T08:05:15.085Z,30
2017-07-17T08:05:55.529Z,30
2017-07-17T08:06:35.981Z,30
2017-07-17T08:07:16.430Z,25
2017-07-17T08:07:56.878Z,25
2017-07-17T08:08:37.333Z,25
2017-07-17T08:09:17.793Z,25
2017-07-17T08:09:58.252Z,25
2017-07-17T08:10:39.024Z,25
2017-07-17T08:11:19.208Z,25
2017-07-17T08:11:59.666Z,25
2017-07-17T08:12:40.121Z,25
2017-07-17T08:13:20.687Z,25
2017-07-17T08:14:01.153Z,25
2017-07-17T08:14:41.618Z,20
2017-07-17T08:15:22.071Z,20
2017-07-17T08:16:02.524Z,20
2017-07-17T08:16:43.115Z,20
2017-07-17T08:17:23.596Z,20
2017-07-17T08:18:04.358Z,20
2017-07-17T08:18:44.810Z,20
2017-07-17T08:19:25.266Z,20
2017-07-17T08:20:05.731Z,25
2017-07-17T08:20:46.184Z,25
2017-07-17T08:21:26.662Z,25
2017-07-17T08:22:07.107Z,25
2017-07-17T08:22:47.562Z,25
2017-07-17T08:23:28.006Z,25
2017-07-17T08:24:08.457Z,25
2017-07-17T08:26:46.949Z,25
2017-07-17T08:27:27.409Z,25
2017-07-17T08:28:07.879Z,25
2017-07-17T08:28:48.318Z,25
2017-07-17T08:29:28.765Z,25
2017-07-17T08:30:09.220Z,25
2017-07-17T08:30:49.660Z,25
2017-07-17T08:31:30.109Z,25
2017-07-17T08:32:10.555Z,25
2017-07-17T08:32:51.009Z,25
2017-07-17T08:33:31.457Z,25
2017-07-17T08:34:11.908Z,25
2017-07-17T08:34:52.355Z,25
2017-07-17T08:35:32.792Z,25
2017-07-17T08:36:13.326Z,25
2017-07-17T08:36:53.794Z,25
2017-07-17T08:37:34.244Z,25
2017-07-17T08:38:14.711Z,25
2017-07-17T08:38:55.156Z,25
2017-07-17T08:39:35.608Z,25
2017-07-17T08:40:16.040Z,25
2017-07-17T08:40:56.489Z,25
2017-07-17T08:41:36.935Z,25
2017-07-17T08:42:17.489Z,25
2017-07-17T08:42:57.941Z,25
2017-07-17T08:43:38.405Z,25
2017-07-17T08:44:18.851Z,25
2017-07-17T08:44:59.339Z,25
2017-07-17T08:45:40.035Z,25
2017-07-17T08:46:21.197Z,25
2017-07-17T08:47:01.690Z,25
2017-07-17T08:47:42.170Z,25
2017-07-17T08:48:22.624Z,25
2017-07-17T08:49:03.063Z,25
2017-07-17T08:49:43.520Z,25
2017-07-17T08:50:24.013Z,25
2017-07-17T08:51:04.437Z,25
2017-07-17T08:51:44.963Z,25
2017-07-17T08:52:25.383Z,25
2017-07-17T08:53:05.826Z,25
2017-07-17T08:55:18.808Z,25
2017-07-17T08:55:59.273Z,30
2017-07-17T08:56:39.760Z,25
2017-07-17T08:57:20.229Z,25
2017-07-17T08:58:00.663Z,25
2017-07-17T08:58:41.109Z,25
2017-07-17T09:01:09.220Z,25
2017-07-17T09:01:49.666Z,25
2017-07-17T09:02:30.434Z,25
2017-07-17T09:03:10.940Z,20
2017-07-17T09:03:51.383Z,20
2017-07-17T09:04:31.809Z,20
2017-07-17T09:05:12.300Z,20
2017-07-17T09:05:52.740Z,20
2017-07-17T09:06:33.203Z,20
2017-07-17T09:07:13.654Z,20
2017-07-17T09:07:54.110Z,20
2017-07-17T09:08:34.612Z,20
2017-07-17T09:09:15.053Z,20
2017-07-17T09:09:55.383Z,20
2017-07-17T09:10:35.842Z,20
2017-07-17T09:11:16.235Z,20
2017-07-17T09:11:56.710Z,20
2017-07-17T09:12:37.110Z,20
2017-07-17T09:13:17.558Z,20
2017-07-17T09:13:58.168Z,20
2017-07-17T09:14:38.670Z,20
2017-07-17T09:15:19.119Z,20
2017-07-17T09:15:59.547Z,20
2017-07-17T09:16:40.011Z,20
2017-07-17T09:17:20.474Z,20
2017-07-17T09:18:00.911Z,20
2017-07-17T09:18:41.493Z,20
2017-07-17T09:19:21.983Z,20
2017-07-17T09:20:02.445Z,20
2017-07-17T09:20:42.885Z,25
2017-07-17T09:21:23.353Z,25
2017-07-17T09:22:03.799Z,25
2017-07-17T09:22:44.259Z,25
2017-07-17T09:23:24.655Z,25
2017-07-17T09:24:05.088Z,25
2017-07-17T09:24:45.521Z,25
2017-07-17T09:25:25.948Z,25
2017-07-17T09:26:06.355Z,25
2017-07-17T09:26:46.802Z,25
2017-07-17T09:27:27.903Z,25
2017-07-17T09:28:08.369Z,20
2017-07-17T09:28:48.797Z,25
2017-07-17T09:29:29.261Z,25
2017-07-17T09:30:09.622Z,25
2017-07-17T09:30:50.042Z,25
2017-07-17T09:31:30.514Z,25
2017-07-17T09:32:10.840Z,25
2017-07-17T09:34:49.023Z,25
2017-07-17T09:35:29.487Z,20
2017-07-17T09:36:09.906Z,20
2017-07-17T09:36:50.349Z,20
2017-07-17T09:37:30.789Z,20
2017-07-17T09:38:11.279Z,25
2017-07-17T09:38:51.726Z,25
2017-07-17T09:39:32.173Z,25
2017-07-17T09:40:12.639Z,25
2017-07-17T09:40:53.074Z,25
2017-07-17T09:41:33.471Z,25
2017-07-17T09:42:13.849Z,30
2017-07-17T09:42:54.314Z,30
2017-07-17T09:43:34.766Z,30
2017-07-17T09:44:15.217Z,30
2017-07-17T09:44:55.678Z,35
2017-07-17T09:45:36.105Z,35
2017-07-17T09:46:16.599Z,35
2017-07-17T09:46:57.063Z,40
2017-07-17T09:47:37.518Z,40
2017-07-17T09:48:17.982Z,55
2017-07-17T09:48:58.335Z,45
2017-07-17T09:49:38.796Z,65
2017-07-17T09:50:19.159Z,60
2017-07-17T09:50:59.568Z,100
2017-07-17T09:51:39.995Z,80
2017-07-17T09:52:20.412Z,65
2017-07-17T09:53:00.792Z,110
2017-07-17T09:53:41.196Z,65
2017-07-17T09:54:21.689Z,65
2017-07-17T09:55:02.031Z,75
2017-07-17T09:55:42.454Z,75
2017-07-17T09:56:22.855Z,80
2017-07-17T09:57:03.245Z,80
2017-07-17T09:57:43.670Z,85
2017-07-17T09:59:56.792Z,80
2017-07-17T10:00:37.244Z,85
2017-07-17T10:01:17.694Z,95
2017-07-17T10:01:58.151Z,80
2017-07-17T10:02:38.593Z,95
2017-07-17T10:03:19.050Z,90
2017-07-17T10:03:59.527Z,115
2017-07-17T10:04:39.975Z,90
2017-07-17T10:05:20.431Z,100
2017-07-17T10:06:00.897Z,110